This is the latest recevied weather packets stored in our database for station/object DL9MSR. If no packets are shown the sender has not sent any weather packets the latest 10 day(s).
| Time | Temp. | Humidity | Pressure | Rain* | Wind** | Luminosity | Snow |
|---|---|---|---|---|---|---|---|
| 1777566019 | 19.44° C | 39% | 1029.8 hPa | 0 mm | - | - | - |
| 1777563618 | 19.44° C | 39% | 1030 hPa | 0 mm | - | - | - |
| 1777563020 | 19.44° C | 38% | 1030 hPa | 0 mm | - | - | - |
| 1777559420 | 20° C | 38% | 1030.7 hPa | 0 mm | - | - | - |
| 1777555823 | 18.89° C | 39% | 1031.3 hPa | 0 mm | - | - | - |
| 1777552221 | 18.33° C | 39% | 1032 hPa | 0 mm | - | - | - |
| 1777548620 | 17.78° C | 40% | 1032.5 hPa | 0 mm | - | - | - |
| 1777539039 | 15° C | 41% | 1033.8 hPa | 0 mm | - | - | - |
| 1777538420 | 14.44° C | 42% | 1033.8 hPa | 0 mm | - | - | - |
| 1777536019 | 13.33° C | 54% | 1033.7 hPa | 0 mm | - | - | - |
| 1777533640 | 12.22° C | 58% | 1034 hPa | 0 mm | - | - | - |
| 1777529419 | 9.44° C | 65% | 1033.7 hPa | 0 mm | - | - | - |
| 1777527018 | 5° C | 88% | 1033.5 hPa | 0 mm | - | - | - |
| 1777525819 | 3.33° C | 89% | 1033.3 hPa | 0 mm | - | - | - |
| 1777522820 | 2.22° C | 87% | 1033 hPa | 0 mm | - | - | - |
| 1777518040 | 2.78° C | 83% | 1032.6 hPa | 0 mm | - | - | - |
| 1777516820 | 3.33° C | 82% | 1032.6 hPa | 0 mm | - | - | - |
| 1777514420 | 3.89° C | 79% | 1032.5 hPa | 0 mm | - | - | - |
| 1777512020 | 5° C | 74% | 1032.4 hPa | 0 mm | - | - | - |
| 1777511420 | 5° C | 72% | 1032.4 hPa | 0 mm | - | - | - |
| 1777510220 | 6.11° C | 71% | 1032.3 hPa | 0 mm | - | - | - |
| 1777502421 | 8.33° C | 56% | 1032.1 hPa | 0 mm | - | - | - |
| 1777500019 | 9.44° C | 52% | 1031.8 hPa | 0 mm | - | - | - |
| 1777498222 | 10° C | 50% | 1031.6 hPa | 0 mm | - | - | - |
| 1777495221 | 11.11° C | 48% | 1031.3 hPa | 0 mm | - | - | - |
* Rain latest hour (hover to see other rain measurements)
** Current wind speed in m/s (hover to see current wind gust speed)